createdAt,value
2023-02-17T00:00:55.616Z,8.00
2023-02-17T00:03:23.759Z,7.95
2023-02-17T00:05:53.147Z,8.07
2023-02-17T00:08:21.157Z,8.14
2023-02-17T00:10:59.040Z,8.00
2023-02-17T00:13:27.278Z,8.18
2023-02-17T00:15:55.400Z,8.20
2023-02-17T00:18:23.952Z,8.28
2023-02-17T00:20:53.245Z,8.26
2023-02-17T00:23:21.127Z,8.27
2023-02-17T00:25:49.059Z,8.20
2023-02-17T00:28:17.016Z,8.13
2023-02-17T00:30:44.948Z,8.24
2023-02-17T00:33:12.840Z,8.26
2023-02-17T00:35:42.666Z,8.25
2023-02-17T00:38:11.969Z,8.32
2023-02-17T00:40:39.992Z,8.07
2023-02-17T00:43:07.903Z,8.37
2023-02-17T00:45:35.773Z,8.30
2023-02-17T00:48:03.713Z,8.13
2023-02-17T00:50:31.639Z,8.34
2023-02-17T00:52:59.563Z,8.41
2023-02-17T00:55:29.077Z,8.23
2023-02-17T00:57:56.983Z,8.19
2023-02-17T01:00:25.069Z,8.00
2023-02-17T01:02:52.998Z,8.45
2023-02-17T01:05:21.087Z,8.35
2023-02-17T01:07:49.168Z,8.37
2023-02-17T01:10:17.225Z,8.28
2023-02-17T01:12:46.508Z,8.27
2023-02-17T01:15:14.591Z,8.46
2023-02-17T01:17:42.655Z,8.41
2023-02-17T01:20:11.040Z,8.55
2023-02-17T01:22:39.926Z,8.68
2023-02-17T01:25:08.440Z,8.52
2023-02-17T01:27:36.579Z,8.55
2023-02-17T01:30:06.852Z,8.61
2023-02-17T01:32:34.789Z,8.71
2023-02-17T01:35:02.712Z,8.58
2023-02-17T01:37:30.591Z,8.28
2023-02-17T01:39:58.490Z,8.61
2023-02-17T01:42:26.698Z,8.69
2023-02-17T01:45:31.627Z,8.62
2023-02-17T01:48:01.780Z,8.74
2023-02-17T01:50:33.218Z,8.53
2023-02-17T01:53:01.479Z,8.40
2023-02-17T01:55:30.299Z,8.79
2023-02-17T01:57:59.519Z,8.84
2023-02-17T02:00:30.161Z,8.69
2023-02-17T02:02:58.528Z,8.59
2023-02-17T02:05:26.483Z,8.77
2023-02-17T02:07:55.159Z,8.78
2023-02-17T02:10:23.096Z,8.58
2023-02-17T02:12:51.001Z,8.81
2023-02-17T02:15:21.430Z,8.39
2023-02-17T02:18:03.224Z,8.66
2023-02-17T02:21:04.845Z,8.77
2023-02-17T02:24:04.789Z,8.73
2023-02-17T02:26:51.186Z,8.93
2023-02-17T02:29:46.324Z,8.86
2023-02-17T02:32:29.085Z,8.67
2023-02-17T02:35:02.282Z,8.87
2023-02-17T02:37:35.133Z,8.71
2023-02-17T02:40:06.131Z,8.75
2023-02-17T02:42:34.275Z,8.92
2023-02-17T02:45:02.239Z,8.72
2023-02-17T02:47:43.698Z,8.95
2023-02-17T02:50:14.021Z,8.85
2023-02-17T02:52:50.113Z,8.91
2023-02-17T02:55:22.739Z,8.92
2023-02-17T02:57:54.844Z,8.95
2023-02-17T03:00:26.944Z,8.94
2023-02-17T03:03:00.051Z,8.69
2023-02-17T03:05:33.216Z,9.03
2023-02-17T03:08:04.333Z,8.70
2023-02-17T03:10:32.383Z,9.06
2023-02-17T03:13:02.823Z,8.96
2023-02-17T03:15:33.284Z,9.00
2023-02-17T03:18:03.685Z,8.91
2023-02-17T03:20:34.252Z,9.10
2023-02-17T03:23:02.151Z,8.92
2023-02-17T03:25:30.158Z,8.94
2023-02-17T03:27:58.259Z,8.92
2023-02-17T03:30:26.190Z,9.16
2023-02-17T03:32:54.137Z,9.06
2023-02-17T03:35:23.485Z,9.20
2023-02-17T03:37:51.363Z,8.89
2023-02-17T03:40:19.511Z,9.13
2023-02-17T03:42:47.431Z,8.98
2023-02-17T03:45:15.400Z,8.84
2023-02-17T03:47:43.315Z,8.87
2023-02-17T03:50:11.844Z,9.15
2023-02-17T03:52:41.149Z,9.22
2023-02-17T03:55:09.332Z,8.85
2023-02-17T03:57:37.241Z,9.12
2023-02-17T04:00:05.662Z,9.20
2023-02-17T04:02:33.601Z,8.88
2023-02-17T04:05:01.500Z,9.17
2023-02-17T04:07:29.579Z,9.32
2023-02-17T04:09:58.846Z,9.30
2023-02-17T04:12:26.852Z,9.19
2023-02-17T04:14:54.850Z,9.24
2023-02-17T04:17:22.743Z,9.03
2023-02-17T04:19:50.668Z,9.12
2023-02-17T04:22:18.585Z,9.18
2023-02-17T04:24:46.527Z,9.30
2023-02-17T04:27:15.879Z,9.19
2023-02-17T04:29:44.008Z,9.26
2023-02-17T04:32:11.937Z,8.98
2023-02-17T04:34:39.923Z,9.21
2023-02-17T04:37:07.963Z,9.31
2023-02-17T04:39:35.882Z,9.29
2023-02-17T04:42:03.824Z,9.00
2023-02-17T04:44:33.220Z,9.27
2023-02-17T04:47:01.132Z,9.32
2023-02-17T04:49:29.037Z,9.26
2023-02-17T04:51:56.947Z,9.05
2023-02-17T04:54:24.857Z,9.17
2023-02-17T04:56:52.848Z,9.40
2023-02-17T04:59:20.757Z,9.23
2023-02-17T05:01:50.153Z,9.25
2023-02-17T05:04:18.090Z,9.45
2023-02-17T05:06:46.024Z,9.45
2023-02-17T05:09:13.933Z,9.24
2023-02-17T05:11:41.819Z,9.20
2023-02-17T05:14:09.732Z,9.25
2023-02-17T05:16:37.843Z,9.41
2023-02-17T05:19:07.484Z,9.23
2023-02-17T05:21:35.500Z,9.39
2023-02-17T05:24:03.581Z,9.30
2023-02-17T05:26:31.575Z,9.26
2023-02-17T05:28:59.500Z,9.49
2023-02-17T05:31:27.563Z,9.43
2023-02-17T05:33:55.725Z,9.45
2023-02-17T05:36:25.042Z,9.52
2023-02-17T05:38:52.938Z,9.50
2023-02-17T05:41:21.007Z,9.34
2023-02-17T05:43:49.467Z,9.53
2023-02-17T05:46:17.571Z,9.31
2023-02-17T05:48:46.032Z,9.46
2023-02-17T05:51:17.216Z,9.36
2023-02-17T05:53:46.569Z,9.34
2023-02-17T05:56:14.472Z,9.30
2023-02-17T05:58:42.404Z,9.41
2023-02-17T06:01:10.785Z,9.45
2023-02-17T06:03:38.739Z,9.39
2023-02-17T06:06:07.706Z,9.41
2023-02-17T06:08:36.014Z,9.39
2023-02-17T06:11:05.698Z,9.37
2023-02-17T06:13:33.610Z,9.43
2023-02-17T06:16:01.725Z,9.37
2023-02-17T06:18:29.698Z,9.53
2023-02-17T06:20:57.791Z,9.40
2023-02-17T06:23:25.835Z,9.49
2023-02-17T06:25:54.180Z,9.39
2023-02-17T06:28:23.505Z,9.32
2023-02-17T06:30:51.459Z,9.48
2023-02-17T06:33:19.403Z,9.51
2023-02-17T06:35:50.125Z,9.34
2023-02-17T06:38:18.272Z,9.41
2023-02-17T06:40:46.248Z,9.52
2023-02-17T06:43:14.223Z,9.28
2023-02-17T06:45:43.572Z,9.44
2023-02-17T06:48:11.497Z,9.59
2023-02-17T06:50:39.738Z,9.56
2023-02-17T06:53:07.683Z,9.56
2023-02-17T06:55:37.325Z,9.64
2023-02-17T06:58:05.256Z,9.46
2023-02-17T07:00:33.183Z,9.52
2023-02-17T07:03:02.542Z,9.39
2023-02-17T07:05:30.582Z,9.53
2023-02-17T07:07:58.917Z,9.53
2023-02-17T07:10:26.862Z,9.33
2023-02-17T07:12:54.850Z,9.44
2023-02-17T07:15:22.849Z,9.39
2023-02-17T07:17:50.772Z,9.40
2023-02-17T07:20:20.356Z,9.46
2023-02-17T07:22:48.262Z,9.32
2023-02-17T07:25:16.236Z,9.47
2023-02-17T07:27:44.175Z,9.48
2023-02-17T07:30:12.872Z,9.42
2023-02-17T07:32:40.833Z,9.59
2023-02-17T07:35:09.096Z,9.43
2023-02-17T07:37:38.367Z,9.52
2023-02-17T07:40:07.816Z,9.49
2023-02-17T07:42:35.763Z,9.46
2023-02-17T07:45:03.692Z,9.57
2023-02-17T07:47:33.049Z,9.58
2023-02-17T07:50:01.041Z,9.56
2023-02-17T07:52:28.964Z,9.59
2023-02-17T07:54:58.300Z,9.60
2023-02-17T07:57:26.372Z,9.52
2023-02-17T07:59:54.276Z,9.52
2023-02-17T08:02:22.344Z,9.34
2023-02-17T08:04:50.322Z,9.46
2023-02-17T08:07:18.405Z,9.38
2023-02-17T08:10:03.681Z,9.46
2023-02-17T08:13:02.153Z,9.44
2023-02-17T08:15:34.076Z,9.38
2023-02-17T08:18:02.381Z,9.45
2023-02-17T08:20:30.373Z,9.48
2023-02-17T08:22:58.286Z,9.38
2023-02-17T08:25:26.200Z,9.44
2023-02-17T08:27:55.719Z,9.49
2023-02-17T08:30:23.638Z,9.43
2023-02-17T08:32:51.588Z,9.49
2023-02-17T08:35:22.503Z,9.40
2023-02-17T08:37:50.538Z,9.47
2023-02-17T08:40:19.531Z,9.41
2023-02-17T08:42:48.337Z,9.57
2023-02-17T08:45:18.287Z,9.48
2023-02-17T08:47:46.220Z,9.59
2023-02-17T08:50:16.523Z,9.60
2023-02-17T08:52:44.484Z,9.54
2023-02-17T08:55:12.709Z,9.55
2023-02-17T08:57:40.956Z,9.46
2023-02-17T09:00:10.499Z,9.53
2023-02-17T09:02:42.738Z,9.56
2023-02-17T09:05:12.974Z,9.47
2023-02-17T09:07:41.299Z,9.55
2023-02-17T09:10:11.096Z,9.63
2023-02-17T09:12:39.033Z,9.54
2023-02-17T09:15:07.847Z,9.72
2023-02-17T09:17:36.002Z,9.51
2023-02-17T09:20:16.280Z,9.57
2023-02-17T09:22:51.529Z,9.57
2023-02-17T09:25:20.419Z,9.71
2023-02-17T09:27:48.342Z,9.74
2023-02-17T09:30:16.461Z,9.74
2023-02-17T09:32:44.688Z,9.67
2023-02-17T09:35:14.615Z,9.69
2023-02-17T09:37:42.546Z,9.75
2023-02-17T09:40:15.903Z,9.75
2023-02-17T09:42:43.863Z,9.78
2023-02-17T09:45:13.910Z,9.77
2023-02-17T09:47:44.982Z,9.84
2023-02-17T09:50:17.478Z,9.68
2023-02-17T09:52:52.606Z,9.62
2023-02-17T09:55:25.799Z,9.82
2023-02-17T09:57:58.206Z,9.74
2023-02-17T10:00:28.289Z,9.71
2023-02-17T10:03:00.501Z,9.88
2023-02-17T10:05:36.381Z,9.83
2023-02-17T10:08:10.058Z,9.84
2023-02-17T10:10:41.599Z,9.93
2023-02-17T10:13:11.030Z,9.92
2023-02-17T10:15:41.932Z,9.94
2023-02-17T10:18:13.302Z,10.18
2023-02-17T10:20:43.913Z,10.08
2023-02-17T10:23:15.469Z,9.98
2023-02-17T10:25:56.010Z,9.78
2023-02-17T10:28:29.208Z,10.14
2023-02-17T10:31:03.108Z,10.13
2023-02-17T10:33:36.917Z,10.06
2023-02-17T10:36:13.294Z,9.99
2023-02-17T10:38:50.681Z,10.05
2023-02-17T10:41:22.955Z,10.03
2023-02-17T10:43:51.348Z,10.21
2023-02-17T10:46:21.977Z,10.22
2023-02-17T10:48:51.850Z,10.21
2023-02-17T10:51:24.401Z,10.26
2023-02-17T10:53:55.544Z,10.23
2023-02-17T10:56:27.351Z,10.12
2023-02-17T10:58:58.226Z,10.26
2023-02-17T11:01:26.583Z,10.25
2023-02-17T11:04:02.706Z,10.33
2023-02-17T11:06:39.412Z,10.22
2023-02-17T11:09:13.961Z,10.33
2023-02-17T11:11:51.793Z,10.31
2023-02-17T11:14:22.798Z,10.33
2023-02-17T11:16:57.102Z,10.26
2023-02-17T11:19:27.867Z,10.22
2023-02-17T11:21:59.835Z,10.24
2023-02-17T11:24:28.137Z,10.14
2023-02-17T11:27:00.984Z,10.31
2023-02-17T11:29:29.517Z,10.23
2023-02-17T11:32:00.957Z,10.37
2023-02-17T11:34:30.949Z,10.26
2023-02-17T11:37:02.629Z,10.30
2023-02-17T11:39:31.032Z,10.19
2023-02-17T11:41:58.988Z,10.13
2023-02-17T11:44:28.211Z,10.39
2023-02-17T11:47:07.095Z,10.38
2023-02-17T11:49:46.844Z,10.33
2023-02-17T11:52:24.224Z,10.22
2023-02-17T11:55:01.456Z,10.39
2023-02-17T11:57:37.882Z,10.34
2023-02-17T12:00:17.672Z,10.38
2023-02-17T12:03:12.426Z,10.36
2023-02-17T12:05:54.707Z,10.26
2023-02-17T12:08:29.282Z,10.32
2023-02-17T12:11:05.936Z,10.46
2023-02-17T12:13:43.896Z,10.26
2023-02-17T12:16:21.143Z,10.32
2023-02-17T12:19:00.731Z,10.31
2023-02-17T12:21:48.261Z,10.44
2023-02-17T12:24:39.310Z,10.53
2023-02-17T12:27:13.029Z,10.25
2023-02-17T12:29:56.729Z,10.48
2023-02-17T12:32:35.160Z,10.60
2023-02-17T12:35:11.665Z,10.61
2023-02-17T12:37:48.409Z,10.57
2023-02-17T12:40:32.664Z,10.48
2023-02-17T12:43:04.068Z,10.67
2023-02-17T12:45:38.779Z,10.52
2023-02-17T12:48:11.045Z,10.42
2023-02-17T12:50:43.041Z,10.39
2023-02-17T12:53:14.532Z,10.38
2023-02-17T12:55:48.495Z,10.35
2023-02-17T12:58:18.787Z,10.43
2023-02-17T13:00:48.561Z,10.60
2023-02-17T13:03:16.557Z,10.48
2023-02-17T13:05:49.316Z,10.43
2023-02-17T13:08:20.737Z,10.48
2023-02-17T13:11:04.202Z,10.40
2023-02-17T13:13:33.945Z,10.51
2023-02-17T13:16:04.746Z,10.54
2023-02-17T13:18:34.693Z,10.44
2023-02-17T13:21:05.577Z,10.68
2023-02-17T13:23:36.977Z,10.66
2023-02-17T13:26:36.758Z,10.69
2023-02-17T13:29:11.284Z,10.63
2023-02-17T13:31:52.250Z,10.51
2023-02-17T13:34:29.958Z,10.62
2023-02-17T13:36:58.648Z,10.70
2023-02-17T13:39:35.476Z,10.75
2023-02-17T13:42:06.084Z,10.70
2023-02-17T13:44:35.478Z,10.68
2023-02-17T13:47:05.115Z,10.70
2023-02-17T13:49:35.251Z,10.70
2023-02-17T13:52:18.597Z,10.75
2023-02-17T13:54:53.679Z,10.82
2023-02-17T13:57:27.798Z,10.73
2023-02-17T14:00:10.427Z,10.91
2023-02-17T14:02:39.208Z,11.00
2023-02-17T14:05:18.714Z,10.98
2023-02-17T14:07:48.362Z,10.89
2023-02-17T14:10:25.205Z,10.98
2023-02-17T14:12:55.492Z,11.11
2023-02-17T14:15:25.286Z,11.14
2023-02-17T14:17:53.498Z,11.23
2023-02-17T14:20:34.986Z,11.14
2023-02-17T14:23:05.706Z,11.02
2023-02-17T14:25:36.045Z,11.17
2023-02-17T14:28:06.165Z,11.19
2023-02-17T14:30:36.823Z,11.25
2023-02-17T14:33:09.829Z,11.25
2023-02-17T14:35:39.436Z,11.22
2023-02-17T14:38:20.981Z,11.13
2023-02-17T14:40:49.085Z,11.25
2023-02-17T14:43:18.418Z,11.11
2023-02-17T14:45:46.473Z,10.91
2023-02-17T14:48:14.827Z,10.97
2023-02-17T14:50:44.256Z,10.88
2023-02-17T14:53:14.831Z,10.80
2023-02-17T14:55:46.282Z,10.78
2023-02-17T14:58:17.636Z,10.68
2023-02-17T15:00:47.069Z,10.69
2023-02-17T15:03:15.573Z,10.62
2023-02-17T15:05:44.072Z,10.58
2023-02-17T15:08:14.432Z,10.56
2023-02-17T15:10:42.375Z,10.48
2023-02-17T15:13:15.128Z,10.47
2023-02-17T15:15:45.047Z,10.32
2023-02-17T15:18:15.219Z,10.34
2023-02-17T15:20:45.501Z,10.35
2023-02-17T15:23:14.567Z,10.26
2023-02-17T15:25:42.569Z,10.21
2023-02-17T15:28:13.787Z,10.18
2023-02-17T15:30:41.806Z,10.16
2023-02-17T15:33:14.257Z,10.06
2023-02-17T15:35:43.175Z,9.99
2023-02-17T15:38:12.802Z,9.97
2023-02-17T15:40:41.189Z,9.95
2023-02-17T15:43:12.383Z,9.86
2023-02-17T15:45:40.299Z,9.87
2023-02-17T15:48:12.035Z,9.82
2023-02-17T15:50:41.338Z,9.76
2023-02-17T15:53:09.309Z,9.66
2023-02-17T15:55:37.285Z,9.66
2023-02-17T15:58:06.062Z,9.59
2023-02-17T16:00:36.758Z,9.49
2023-02-17T16:03:04.926Z,9.54
2023-02-17T16:05:33.661Z,9.48
2023-02-17T16:08:02.948Z,9.36
2023-02-17T16:10:31.110Z,9.42
2023-02-17T16:12:59.640Z,9.31
2023-02-17T16:15:29.384Z,9.26
2023-02-17T16:17:57.772Z,9.33
2023-02-17T16:20:27.547Z,9.11
2023-02-17T16:22:55.485Z,9.13
2023-02-17T16:25:24.886Z,9.01
2023-02-17T16:27:53.764Z,9.00
2023-02-17T16:30:24.173Z,8.97
2023-02-17T16:32:52.784Z,8.95
2023-02-17T16:35:23.016Z,8.87
2023-02-17T16:37:54.332Z,8.80
2023-02-17T16:40:25.674Z,8.70
2023-02-17T16:42:53.733Z,8.74
2023-02-17T16:45:24.029Z,8.76
2023-02-17T16:47:56.600Z,8.66
2023-02-17T16:50:26.892Z,8.55
2023-02-17T16:52:56.576Z,8.56
2023-02-17T16:55:28.714Z,8.51
2023-02-17T16:57:57.349Z,8.51
2023-02-17T17:00:29.792Z,8.53
2023-02-17T17:02:58.151Z,8.53
2023-02-17T17:05:27.938Z,8.49
2023-02-17T17:07:56.240Z,8.39
2023-02-17T17:10:27.073Z,8.39
2023-02-17T17:12:55.349Z,8.35
2023-02-17T17:15:23.441Z,8.40
2023-02-17T17:17:53.903Z,8.42
2023-02-17T17:20:26.922Z,8.38
2023-02-17T17:22:55.050Z,8.29
2023-02-17T17:25:22.987Z,8.25
2023-02-17T17:27:52.304Z,8.36
2023-02-17T17:30:22.042Z,8.23
2023-02-17T17:32:50.201Z,8.34
2023-02-17T17:35:18.749Z,8.24
2023-02-17T17:37:49.750Z,8.21
2023-02-17T17:40:19.791Z,8.21
2023-02-17T17:42:47.701Z,8.20
2023-02-17T17:45:17.375Z,8.16
2023-02-17T17:47:45.790Z,8.20
2023-02-17T17:50:17.291Z,8.16
2023-02-17T17:52:45.480Z,8.11
2023-02-17T17:55:13.842Z,8.09
2023-02-17T17:57:42.509Z,8.11
2023-02-17T18:00:14.229Z,8.04
2023-02-17T18:02:43.785Z,8.04
2023-02-17T18:05:12.337Z,8.02
2023-02-17T18:07:41.632Z,8.01
2023-02-17T18:10:11.519Z,8.05
2023-02-17T18:12:39.913Z,7.94
2023-02-17T18:15:08.776Z,7.90
2023-02-17T18:17:38.714Z,7.94
2023-02-17T18:20:10.778Z,7.86
2023-02-17T18:22:38.911Z,7.92
2023-02-17T18:25:07.168Z,7.79
2023-02-17T18:27:39.943Z,7.85
2023-02-17T18:30:09.411Z,7.80
2023-02-17T18:32:37.332Z,7.81
2023-02-17T18:35:05.746Z,7.83
2023-02-17T18:37:35.421Z,7.80
2023-02-17T18:40:03.966Z,7.76
2023-02-17T18:42:32.240Z,7.83
2023-02-17T18:45:00.129Z,7.74
2023-02-17T18:47:28.115Z,7.74
2023-02-17T18:49:56.187Z,7.69
2023-02-17T18:52:24.296Z,7.68
2023-02-17T18:54:53.918Z,7.59
2023-02-17T18:57:22.083Z,7.59
2023-02-17T18:59:50.534Z,7.63
2023-02-17T19:02:19.413Z,7.61
2023-02-17T19:04:47.312Z,7.66
2023-02-17T19:07:15.292Z,7.55
2023-02-17T19:09:43.525Z,7.61
2023-02-17T19:12:13.666Z,7.65
2023-02-17T19:14:42.135Z,7.60
2023-02-17T19:17:10.570Z,7.55
2023-02-17T19:19:38.604Z,7.58
2023-02-17T19:22:08.715Z,7.60
2023-02-17T19:24:36.790Z,7.55
2023-02-17T19:27:05.020Z,7.56
2023-02-17T19:29:34.634Z,7.50
2023-02-17T19:32:04.502Z,7.49
2023-02-17T19:34:32.577Z,7.53
2023-02-17T19:37:00.729Z,7.50
2023-02-17T19:39:28.837Z,7.47
2023-02-17T19:41:56.731Z,7.39
2023-02-17T19:44:24.722Z,7.41
2023-02-17T19:46:54.300Z,7.42
2023-02-17T19:49:22.560Z,7.43
2023-02-17T19:51:50.939Z,7.44
2023-02-17T19:54:18.967Z,7.44
2023-02-17T19:56:48.927Z,7.36
2023-02-17T19:59:16.976Z,7.43
2023-02-17T20:01:45.161Z,7.27
2023-02-17T20:04:14.737Z,7.24
2023-02-17T20:06:45.634Z,7.22
2023-02-17T20:09:16.877Z,7.20
2023-02-17T20:11:45.861Z,7.18
2023-02-17T20:14:16.959Z,7.25
2023-02-17T20:16:44.906Z,7.21
2023-02-17T20:19:14.454Z,7.41
2023-02-17T20:21:44.849Z,7.33
2023-02-17T20:24:14.223Z,7.24
2023-02-17T20:26:44.846Z,7.23
2023-02-17T20:29:13.778Z,7.22
2023-02-17T20:31:42.884Z,7.22
2023-02-17T20:34:28.256Z,7.13
2023-02-17T20:36:56.388Z,7.21
2023-02-17T20:39:25.922Z,7.17
2023-02-17T20:41:54.519Z,7.14
2023-02-17T20:44:23.719Z,7.11
2023-02-17T20:46:53.343Z,7.11
2023-02-17T20:49:22.275Z,7.10
2023-02-17T20:51:53.941Z,7.08
2023-02-17T20:54:24.685Z,7.11
2023-02-17T20:56:53.030Z,7.10
2023-02-17T20:59:21.463Z,7.13
2023-02-17T21:01:49.955Z,7.08
2023-02-17T21:04:18.720Z,7.03
2023-02-17T21:06:47.538Z,7.06
2023-02-17T21:09:18.681Z,7.06
2023-02-17T21:11:47.910Z,6.96
2023-02-17T21:14:16.279Z,7.04
2023-02-17T21:16:47.532Z,7.02
2023-02-17T21:19:15.699Z,7.03
2023-02-17T21:21:43.801Z,6.93
2023-02-17T21:24:12.035Z,7.11
2023-02-17T21:26:42.582Z,6.92
2023-02-17T21:29:10.525Z,6.87
2023-02-17T21:31:38.499Z,6.85
2023-02-17T21:34:07.251Z,6.86
2023-02-17T21:36:35.192Z,6.91
2023-02-17T21:39:04.265Z,6.81
2023-02-17T21:41:33.314Z,6.86
2023-02-17T21:44:20.627Z,6.86
2023-02-17T21:46:48.561Z,6.88
2023-02-17T21:49:16.738Z,6.84
2023-02-17T21:51:45.062Z,6.91
2023-02-17T21:54:13.114Z,6.89
2023-02-17T21:56:41.278Z,6.86
2023-02-17T21:59:10.650Z,6.85
2023-02-17T22:01:38.752Z,6.81
2023-02-17T22:04:06.811Z,6.92
2023-02-17T22:06:36.966Z,6.96
2023-02-17T22:09:06.812Z,6.80
2023-02-17T22:11:36.752Z,6.79
2023-02-17T22:14:07.686Z,6.79
2023-02-17T22:16:37.760Z,6.76
2023-02-17T22:19:07.220Z,6.79
2023-02-17T22:21:36.460Z,6.77
2023-02-17T22:24:04.447Z,6.80
2023-02-17T22:26:33.122Z,6.72
2023-02-17T22:29:01.041Z,6.82
2023-02-17T22:31:31.083Z,6.81
2023-02-17T22:34:02.514Z,6.78
2023-02-17T22:36:33.100Z,6.80
2023-02-17T22:39:01.186Z,6.76
2023-02-17T22:41:29.447Z,6.77
2023-02-17T22:43:57.634Z,6.87
2023-02-17T22:46:27.314Z,6.75
2023-02-17T22:48:57.890Z,6.69
2023-02-17T22:51:29.158Z,6.66
2023-02-17T22:53:57.094Z,6.72
2023-02-17T22:56:25.246Z,6.77
2023-02-17T22:58:56.515Z,6.73
2023-02-17T23:01:25.418Z,6.69
2023-02-17T23:03:54.696Z,6.84
2023-02-17T23:06:26.401Z,6.71
2023-02-17T23:08:56.148Z,6.84
2023-02-17T23:11:45.902Z,6.71
2023-02-17T23:14:14.671Z,6.78
2023-02-17T23:16:43.120Z,6.80
2023-02-17T23:19:16.477Z,6.77
2023-02-17T23:21:45.318Z,6.84
2023-02-17T23:24:16.480Z,6.79
2023-02-17T23:26:44.921Z,6.75
2023-02-17T23:29:12.861Z,6.73
2023-02-17T23:31:40.938Z,6.67
2023-02-17T23:34:12.022Z,6.71
2023-02-17T23:36:40.505Z,6.71
2023-02-17T23:39:08.840Z,6.68
2023-02-17T23:41:38.512Z,6.70
2023-02-17T23:44:09.576Z,6.74
2023-02-17T23:46:37.781Z,6.71
2023-02-17T23:49:06.092Z,6.93
2023-02-17T23:51:34.309Z,6.77
2023-02-17T23:54:04.582Z,6.75
2023-02-17T23:56:34.620Z,6.74
2023-02-17T23:59:04.171Z,6.67
